createdAt,value
2022-12-19T00:01:34.701Z,-4.00
2022-12-19T00:04:08.352Z,-3.80
2022-12-19T00:06:36.784Z,-3.70
2022-12-19T00:09:04.470Z,-3.80
2022-12-19T00:11:32.116Z,-3.80
2022-12-19T00:13:59.872Z,-3.80
2022-12-19T00:16:29.167Z,-3.80
2022-12-19T00:18:58.908Z,-4.00
2022-12-19T00:21:28.338Z,-4.00
2022-12-19T00:23:55.747Z,-3.70
2022-12-19T00:26:23.574Z,-3.80
2022-12-19T00:28:53.474Z,-3.90
2022-12-19T00:31:22.176Z,-4.00
2022-12-19T00:33:49.255Z,-3.90
2022-12-19T00:36:22.804Z,-3.90
2022-12-19T00:38:51.738Z,-3.90
2022-12-19T00:41:21.424Z,-4.00
2022-12-19T00:43:53.975Z,-3.80
2022-12-19T00:46:21.506Z,-3.90
2022-12-19T00:48:48.605Z,-3.90
2022-12-19T00:51:21.155Z,-3.80
2022-12-19T00:53:49.628Z,-4.10
2022-12-19T00:56:19.805Z,-4.10
2022-12-19T00:58:47.569Z,-4.10
2022-12-19T01:01:17.083Z,-4.10
2022-12-19T01:04:04.321Z,-4.30
2022-12-19T01:06:31.054Z,-4.20
2022-12-19T01:08:58.431Z,-4.00
2022-12-19T01:11:43.694Z,-4.10
2022-12-19T01:14:14.020Z,-4.20
2022-12-19T01:16:44.334Z,-4.00
2022-12-19T01:19:11.287Z,-3.80
2022-12-19T01:21:38.033Z,-3.90
2022-12-19T01:24:05.569Z,-4.00
2022-12-19T01:26:32.256Z,-3.90
2022-12-19T01:28:59.098Z,-4.10
2022-12-19T01:31:25.823Z,-4.00
2022-12-19T01:33:52.506Z,-3.90
2022-12-19T01:36:21.353Z,-4.00
2022-12-19T01:38:48.003Z,-3.90
2022-12-19T01:41:14.765Z,-3.90
2022-12-19T01:43:57.397Z,-3.80
2022-12-19T01:46:40.165Z,-3.80
2022-12-19T01:49:15.833Z,-3.80
2022-12-19T01:51:46.872Z,-4.00
2022-12-19T01:54:25.502Z,-3.80
2022-12-19T01:56:55.614Z,-3.80
2022-12-19T01:59:45.819Z,-4.00
2022-12-19T02:06:02.843Z,-3.70
2022-12-19T02:08:29.910Z,-3.90
2022-12-19T02:10:58.656Z,-3.80
2022-12-19T02:13:25.363Z,-3.80
2022-12-19T02:15:52.048Z,-3.90
2022-12-19T02:18:43.311Z,-3.90
2022-12-19T02:21:25.211Z,-3.90
2022-12-19T02:24:29.544Z,-3.70
2022-12-19T02:27:11.064Z,-3.70
2022-12-19T02:29:56.331Z,-2.00
2022-12-19T02:32:47.473Z,-3.80
2022-12-19T02:35:40.987Z,-3.80
2022-12-19T02:38:40.043Z,-3.80
2022-12-19T02:41:20.789Z,-3.80
2022-12-19T02:43:50.778Z,-3.80
2022-12-19T02:46:26.543Z,-3.80
2022-12-19T02:48:53.659Z,-3.80
2022-12-19T02:51:20.311Z,-3.90
2022-12-19T02:53:46.983Z,-3.80
2022-12-19T02:56:45.921Z,-4.40
2022-12-19T02:59:21.276Z,-3.80
2022-12-19T03:01:51.429Z,-3.80
2022-12-19T03:04:48.034Z,-3.90
2022-12-19T03:07:25.960Z,-3.80
2022-12-19T03:10:01.567Z,-3.80
2022-12-19T03:12:34.172Z,-3.80
2022-12-19T03:15:01.850Z,-3.80
2022-12-19T03:17:29.421Z,-3.60
2022-12-19T03:19:56.834Z,-4.00
2022-12-19T03:22:23.621Z,-4.00
2022-12-19T03:24:50.651Z,-3.90
2022-12-19T03:27:33.277Z,-3.80
2022-12-19T03:30:03.968Z,-4.00
2022-12-19T03:32:31.618Z,-3.00
2022-12-19T03:35:08.344Z,-3.70
2022-12-19T03:37:38.549Z,-3.70
2022-12-19T03:40:11.094Z,-3.80
2022-12-19T03:42:59.539Z,-3.70
2022-12-19T03:45:56.998Z,-3.70
2022-12-19T03:48:54.023Z,-3.70
2022-12-19T03:51:48.004Z,-3.80
2022-12-19T03:54:25.486Z,-3.80
2022-12-19T03:57:06.051Z,-3.70
2022-12-19T03:59:55.341Z,-3.70
2022-12-19T04:02:23.475Z,-3.60
2022-12-19T04:04:58.640Z,-3.70
2022-12-19T04:07:26.025Z,-3.60
2022-12-19T04:09:55.767Z,-3.60
2022-12-19T04:12:29.624Z,-3.50
2022-12-19T04:14:56.566Z,-3.60
2022-12-19T04:17:45.533Z,-3.50
2022-12-19T04:20:22.265Z,-3.50
2022-12-19T04:23:11.719Z,-3.50
2022-12-19T04:25:45.217Z,-3.50
2022-12-19T04:28:26.555Z,-3.50
2022-12-19T04:30:54.334Z,-3.50
2022-12-19T04:33:21.047Z,-3.50
2022-12-19T04:35:47.866Z,-3.50
2022-12-19T04:38:14.680Z,-3.60
2022-12-19T04:40:41.905Z,-3.50
2022-12-19T04:43:09.279Z,-3.50
2022-12-19T04:45:36.701Z,-3.50
2022-12-19T04:48:04.195Z,-3.60
2022-12-19T04:50:32.840Z,-3.40
2022-12-19T04:52:59.906Z,-3.70
2022-12-19T04:55:26.590Z,-3.50
2022-12-19T04:57:53.310Z,-3.40
2022-12-19T05:00:20.040Z,-3.50
2022-12-19T05:02:46.838Z,-3.40
2022-12-19T05:05:13.649Z,-3.60
2022-12-19T05:07:40.697Z,-3.40
2022-12-19T05:10:07.979Z,-3.30
2022-12-19T05:12:34.874Z,-3.40
2022-12-19T05:15:01.685Z,-3.50
2022-12-19T05:17:28.368Z,-3.40
2022-12-19T05:19:55.076Z,-3.50
2022-12-19T05:22:21.726Z,-3.60
2022-12-19T05:24:48.405Z,-3.60
2022-12-19T05:27:15.137Z,-3.20
2022-12-19T05:29:41.885Z,-3.30
2022-12-19T05:32:08.583Z,-3.30
2022-12-19T05:34:35.533Z,-3.30
2022-12-19T05:37:03.508Z,-3.30
2022-12-19T05:39:30.325Z,-3.50
2022-12-19T05:41:57.288Z,-3.40
2022-12-19T05:44:24.776Z,-3.30
2022-12-19T05:46:51.993Z,-3.30
2022-12-19T05:49:18.893Z,-2.90
2022-12-19T05:51:46.162Z,-3.10
2022-12-19T05:54:12.976Z,-3.00
2022-12-19T05:56:39.627Z,-3.40
2022-12-19T05:59:06.442Z,-3.00
2022-12-19T06:01:33.248Z,-3.30
2022-12-19T06:04:00.019Z,-3.10
2022-12-19T06:06:27.163Z,-3.50
2022-12-19T06:08:55.573Z,-3.40
2022-12-19T06:11:22.892Z,-3.30
2022-12-19T06:13:49.941Z,-3.30
2022-12-19T06:16:19.150Z,-3.20
2022-12-19T06:18:46.359Z,-3.50
2022-12-19T06:21:15.827Z,-3.40
2022-12-19T06:23:43.786Z,-3.40
2022-12-19T06:26:18.368Z,-3.40
2022-12-19T06:28:46.169Z,-2.90
2022-12-19T06:31:13.471Z,-3.30
2022-12-19T06:33:40.598Z,-3.10
2022-12-19T06:36:11.988Z,-3.00
2022-12-19T06:38:38.706Z,-2.80
2022-12-19T06:41:24.160Z,-3.10
2022-12-19T06:43:53.602Z,-3.00
2022-12-19T06:46:20.733Z,-2.90
2022-12-19T06:48:47.849Z,-2.90
2022-12-19T06:51:14.694Z,-2.90
2022-12-19T06:53:41.408Z,-2.90
2022-12-19T06:56:08.352Z,-2.90
2022-12-19T06:58:35.305Z,-2.90
2022-12-19T07:01:02.144Z,-2.90
2022-12-19T07:03:36.126Z,-2.90
2022-12-19T07:06:04.196Z,-2.80
2022-12-19T07:08:33.891Z,-2.90
2022-12-19T07:11:00.595Z,-2.90
2022-12-19T07:13:27.531Z,-2.80
2022-12-19T07:15:57.344Z,-2.80
2022-12-19T07:18:24.280Z,-2.90
2022-12-19T07:20:51.046Z,-2.90
2022-12-19T07:23:20.711Z,-2.80
2022-12-19T07:25:47.535Z,-2.00
2022-12-19T07:28:14.978Z,-2.70
2022-12-19T07:30:41.688Z,-2.70
2022-12-19T07:33:11.104Z,-2.70
2022-12-19T07:35:38.665Z,-2.30
2022-12-19T07:38:07.116Z,-1.90
2022-12-19T07:40:35.062Z,-2.50
2022-12-19T07:43:03.317Z,-2.60
2022-12-19T07:45:30.973Z,-2.80
2022-12-19T07:48:01.724Z,-2.40
2022-12-19T07:50:29.709Z,-2.70
2022-12-19T07:52:58.350Z,-2.50
2022-12-19T07:55:25.917Z,-2.70
2022-12-19T07:57:53.618Z,-2.00
2022-12-19T08:00:20.463Z,-2.50
2022-12-19T08:02:47.829Z,-2.10
2022-12-19T08:05:14.811Z,-2.70
2022-12-19T08:07:41.509Z,-2.20
2022-12-19T08:12:38.212Z,-2.00
2022-12-19T08:15:06.237Z,-1.60
2022-12-19T08:17:34.826Z,-2.00
2022-12-19T08:20:01.715Z,-2.10
2022-12-19T08:22:30.203Z,-2.00
2022-12-19T08:24:57.757Z,-2.00
2022-12-19T08:27:25.057Z,-1.90
2022-12-19T08:29:52.031Z,-1.90
2022-12-19T08:32:21.397Z,-1.80
2022-12-19T08:34:49.921Z,-1.80
2022-12-19T08:37:17.383Z,-1.90
2022-12-19T08:39:44.602Z,-1.80
2022-12-19T08:42:11.367Z,-1.80
2022-12-19T08:44:38.208Z,-1.80
2022-12-19T08:47:05.348Z,-1.70
2022-12-19T08:49:32.261Z,-1.60
2022-12-19T08:51:59.042Z,-1.60
2022-12-19T08:56:53.883Z,-1.50
2022-12-19T08:59:30.854Z,-1.60
2022-12-19T09:02:00.630Z,-1.60
2022-12-19T09:05:57.791Z,-1.50
2022-12-19T09:07:16.130Z,-1.30
2022-12-19T09:09:44.569Z,-1.40
2022-12-19T09:12:13.294Z,-1.40
2022-12-19T09:14:39.977Z,-1.50
2022-12-19T09:17:06.862Z,-1.30
2022-12-19T09:19:33.791Z,-1.00
2022-12-19T09:22:00.645Z,-0.80
2022-12-19T09:24:27.603Z,-1.60
2022-12-19T09:30:33.580Z,-0.50
2022-12-19T09:33:03.884Z,-0.10
2022-12-19T09:35:34.866Z,-0.90
2022-12-19T09:38:03.629Z,-2.10
2022-12-19T09:40:43.112Z,-1.10
2022-12-19T09:43:47.771Z,-1.10
2022-12-19T09:46:20.692Z,-1.10
2022-12-19T09:48:55.182Z,-1.10
2022-12-19T09:51:35.993Z,-0.50
2022-12-19T09:54:11.534Z,-1.00
2022-12-19T09:56:46.557Z,-0.40
2022-12-19T09:59:28.291Z,-1.20
2022-12-19T10:02:20.740Z,-1.00
2022-12-19T10:04:51.794Z,-0.90
2022-12-19T10:07:54.728Z,-0.90
2022-12-19T10:12:42.761Z,-0.80
2022-12-19T10:13:29.456Z,-0.90
2022-12-19T10:16:04.908Z,-0.80
2022-12-19T10:18:57.008Z,-1.20
2022-12-19T10:22:16.303Z,-0.60
2022-12-19T10:25:02.063Z,-0.60
2022-12-19T10:27:44.227Z,-0.50
2022-12-19T10:30:27.957Z,-0.50
2022-12-19T10:33:22.544Z,-0.60
2022-12-19T10:38:34.779Z,-0.30
2022-12-19T10:41:22.046Z,-0.30
2022-12-19T10:43:56.229Z,-0.30
2022-12-19T10:46:46.614Z,-0.30
2022-12-19T10:49:19.413Z,-0.30
2022-12-19T10:51:55.596Z,-0.30
2022-12-19T10:54:37.521Z,-0.30
2022-12-19T10:57:22.741Z,-0.10
2022-12-19T10:59:57.141Z,-0.10
2022-12-19T11:02:35.415Z,-0.10
2022-12-19T11:05:03.750Z,-0.20
2022-12-19T11:07:30.768Z,-0.10
2022-12-19T11:10:24.701Z,-0.20
2022-12-19T11:17:35.246Z,-0.30
2022-12-19T11:22:44.721Z,0.50
2022-12-19T11:29:17.590Z,0.00
2022-12-19T11:29:37.839Z,-0.20
2022-12-19T11:29:54.224Z,0.10
2022-12-19T11:30:38.060Z,0.10
2022-12-19T11:33:16.067Z,0.10
2022-12-19T11:35:52.967Z,0.30
2022-12-19T11:38:48.875Z,0.30
2022-12-19T11:41:21.160Z,0.20
2022-12-19T11:43:52.708Z,0.20
2022-12-19T11:46:31.551Z,0.30
2022-12-19T11:49:46.050Z,0.30
2022-12-19T11:55:54.967Z,0.30
2022-12-19T11:58:23.804Z,0.40
2022-12-19T12:01:02.649Z,0.40
2022-12-19T12:04:01.687Z,0.40
2022-12-19T12:06:51.572Z,0.40
2022-12-19T12:14:29.149Z,0.50
2022-12-19T12:30:59.334Z,0.60
2022-12-19T12:31:11.209Z,0.60
2022-12-19T12:31:15.240Z,0.50
2022-12-19T12:31:17.058Z,0.60
2022-12-19T12:31:45.494Z,0.60
2022-12-19T12:35:54.216Z,0.60
2022-12-19T12:40:48.563Z,0.70
2022-12-19T12:43:46.944Z,0.60
2022-12-19T12:46:19.397Z,0.60
2022-12-19T12:49:05.824Z,0.60
2022-12-19T12:51:34.271Z,0.70
2022-12-19T12:54:07.715Z,0.60
2022-12-19T12:56:36.570Z,0.70
2022-12-19T12:59:20.281Z,0.80
2022-12-19T13:01:57.141Z,0.80
2022-12-19T13:04:31.431Z,1.00
2022-12-19T13:07:26.852Z,0.90
2022-12-19T13:10:16.527Z,0.90
2022-12-19T13:13:17.376Z,0.90
2022-12-19T13:18:12.932Z,1.10
2022-12-19T13:20:44.273Z,1.90
2022-12-19T13:23:33.985Z,2.00
2022-12-19T13:26:00.842Z,1.10
2022-12-19T13:28:27.505Z,0.70
2022-12-19T13:31:19.591Z,0.70
2022-12-19T13:33:48.356Z,1.10
2022-12-19T13:40:00.639Z,1.00
2022-12-19T13:40:10.759Z,1.10
2022-12-19T13:43:10.006Z,1.10
2022-12-19T13:45:47.254Z,0.70
2022-12-19T13:48:31.973Z,1.10
2022-12-19T13:51:04.286Z,0.90
2022-12-19T13:53:31.401Z,0.90
2022-12-19T13:56:04.871Z,0.90
2022-12-19T13:58:37.480Z,1.10
2022-12-19T14:01:20.820Z,0.60
2022-12-19T14:03:50.223Z,1.20
2022-12-19T14:06:26.222Z,1.10
2022-12-19T14:11:27.263Z,1.20
2022-12-19T14:13:46.440Z,1.20
2022-12-19T14:14:58.034Z,1.10
2022-12-19T14:17:39.393Z,1.20
2022-12-19T14:22:02.814Z,1.10
2022-12-19T14:23:10.805Z,1.20
2022-12-19T14:28:15.248Z,1.20
2022-12-19T14:28:55.037Z,1.10
2022-12-19T14:31:24.618Z,1.20
2022-12-19T14:34:11.559Z,1.10
2022-12-19T14:36:48.021Z,1.20
2022-12-19T14:39:23.794Z,1.20
2022-12-19T14:43:06.227Z,1.20
2022-12-19T14:52:34.604Z,1.20
2022-12-19T14:52:50.879Z,1.10
2022-12-19T14:54:35.865Z,1.20
2022-12-19T14:56:19.521Z,1.20
2022-12-19T14:58:52.848Z,1.20
2022-12-19T15:01:07.326Z,2.60
2022-12-19T15:04:52.515Z,1.40
2022-12-19T15:07:08.077Z,1.40
2022-12-19T15:11:08.037Z,1.30
2022-12-19T15:14:48.944Z,1.20
2022-12-19T15:16:33.499Z,1.20
2022-12-19T15:19:01.885Z,2.20
2022-12-19T15:21:36.619Z,1.80
2022-12-19T15:24:03.507Z,1.20
2022-12-19T15:26:36.586Z,0.50
2022-12-19T15:29:14.177Z,1.40
2022-12-19T15:31:45.344Z,2.40
2022-12-19T15:34:40.183Z,2.30
2022-12-19T15:37:13.587Z,1.20
2022-12-19T15:39:41.303Z,1.60
2022-12-19T15:42:21.618Z,0.90
2022-12-19T15:44:59.693Z,1.40
2022-12-19T15:47:37.278Z,1.90
2022-12-19T15:50:28.140Z,1.40
2022-12-19T15:53:00.682Z,0.60
2022-12-19T15:55:32.794Z,2.70
2022-12-19T15:58:18.891Z,0.10
2022-12-19T16:00:52.347Z,1.40
2022-12-19T16:03:27.430Z,0.50
2022-12-19T16:05:56.101Z,2.00
2022-12-19T16:08:28.097Z,0.40
2022-12-19T16:11:01.771Z,1.00
2022-12-19T16:13:34.893Z,1.30
2022-12-19T16:16:06.548Z,1.30
2022-12-19T16:18:39.817Z,0.80
2022-12-19T16:21:06.876Z,0.50
2022-12-19T16:23:33.797Z,0.60
2022-12-19T16:26:01.206Z,0.70
2022-12-19T16:28:34.204Z,0.80
2022-12-19T16:31:15.367Z,0.70
2022-12-19T16:33:44.329Z,1.20
2022-12-19T16:36:16.329Z,1.30
2022-12-19T16:38:43.321Z,2.30
2022-12-19T16:41:19.493Z,1.90
2022-12-19T16:43:46.572Z,1.10
2022-12-19T16:46:18.373Z,2.40
2022-12-19T16:48:45.749Z,1.20
2022-12-19T16:51:24.688Z,0.80
2022-12-19T16:53:56.410Z,1.20
2022-12-19T16:56:28.791Z,1.40
2022-12-19T16:58:57.193Z,2.10
2022-12-19T17:01:24.374Z,2.20
2022-12-19T17:03:51.581Z,0.80
2022-12-19T17:06:20.553Z,0.50
2022-12-19T17:08:47.699Z,1.50
2022-12-19T17:11:21.352Z,1.90
2022-12-19T17:13:50.715Z,1.20
2022-12-19T17:16:17.990Z,2.30
2022-12-19T17:18:46.259Z,0.70
2022-12-19T17:21:18.290Z,1.40
2022-12-19T17:23:46.456Z,1.10
2022-12-19T17:26:17.703Z,1.50
2022-12-19T17:28:48.308Z,0.90
2022-12-19T17:31:26.010Z,1.00
2022-12-19T17:33:56.432Z,1.10
2022-12-19T17:36:31.205Z,1.80
2022-12-19T17:39:01.937Z,1.40
2022-12-19T17:41:28.921Z,0.60
2022-12-19T17:43:58.098Z,1.20
2022-12-19T17:46:25.638Z,0.80
2022-12-19T17:48:53.681Z,1.50
2022-12-19T17:51:22.433Z,1.50
2022-12-19T17:53:50.145Z,2.30
2022-12-19T17:56:19.195Z,2.10
2022-12-19T17:58:48.128Z,0.50
2022-12-19T18:01:23.637Z,1.70
2022-12-19T18:03:53.157Z,1.30
2022-12-19T18:06:20.938Z,0.30
2022-12-19T18:08:50.331Z,0.80
2022-12-19T18:11:20.793Z,0.10
2022-12-19T18:13:48.137Z,2.00
2022-12-19T18:16:22.514Z,1.50
2022-12-19T18:18:52.652Z,1.60
2022-12-19T18:21:22.405Z,1.30
2022-12-19T18:23:51.765Z,0.50
2022-12-19T18:26:18.748Z,0.50
2022-12-19T18:28:47.073Z,2.20
2022-12-19T18:31:25.821Z,1.90
2022-12-19T18:33:55.915Z,0.50
2022-12-19T18:36:25.404Z,0.80
2022-12-19T18:38:53.062Z,1.10
2022-12-19T18:41:20.435Z,1.70
2022-12-19T18:43:48.190Z,1.60
2022-12-19T18:46:19.452Z,1.40
2022-12-19T18:48:46.515Z,2.00
2022-12-19T18:51:17.144Z,-0.30
2022-12-19T18:53:45.104Z,-0.20
2022-12-19T18:56:12.068Z,1.10
2022-12-19T18:58:39.396Z,1.70
2022-12-19T19:01:12.298Z,1.70
2022-12-19T19:03:40.990Z,0.90
2022-12-19T19:06:23.274Z,1.60
2022-12-19T19:08:53.108Z,0.50
2022-12-19T19:11:27.825Z,1.40
2022-12-19T19:13:54.771Z,-0.70
2022-12-19T19:16:26.440Z,2.40
2022-12-19T19:18:56.372Z,-1.10
2022-12-19T19:21:30.576Z,-0.30
2022-12-19T19:24:15.078Z,0.10
2022-12-19T19:26:42.172Z,0.30
2022-12-19T19:29:10.071Z,1.70
2022-12-19T19:31:41.640Z,2.30
2022-12-19T19:34:35.430Z,2.40
2022-12-19T19:37:04.976Z,1.20
2022-12-19T19:39:33.762Z,0.00
2022-12-19T19:42:01.273Z,0.10
2022-12-19T19:44:28.993Z,1.30
2022-12-19T19:46:56.218Z,-0.30
2022-12-19T19:49:23.919Z,-0.10
2022-12-19T19:51:58.512Z,1.20
2022-12-19T19:54:29.227Z,0.70
2022-12-19T19:56:56.316Z,-0.50
2022-12-19T19:59:23.274Z,0.40
2022-12-19T20:01:55.886Z,2.40
2022-12-19T20:04:23.057Z,0.20
2022-12-19T20:06:50.018Z,1.10
2022-12-19T20:09:20.247Z,1.30
2022-12-19T20:11:47.186Z,1.40
2022-12-19T20:14:14.202Z,-0.60
2022-12-19T20:16:43.467Z,1.30
2022-12-19T20:19:10.981Z,0.20
2022-12-19T20:21:38.018Z,0.40
2022-12-19T20:24:05.111Z,1.00
2022-12-19T20:26:32.095Z,0.40
2022-12-19T20:28:58.953Z,-0.60
2022-12-19T20:31:26.126Z,1.40
2022-12-19T20:33:56.540Z,1.10
2022-12-19T20:36:25.340Z,0.10
2022-12-19T20:38:52.482Z,0.10
2022-12-19T20:41:28.210Z,-0.40
2022-12-19T20:43:55.170Z,2.20
2022-12-19T20:46:23.824Z,-0.80
2022-12-19T20:48:51.691Z,1.30
2022-12-19T20:51:21.629Z,0.50
2022-12-19T20:53:49.193Z,0.80
2022-12-19T20:56:18.849Z,0.30
2022-12-19T20:58:46.944Z,0.90
2022-12-19T21:01:19.842Z,2.50
2022-12-19T21:03:48.563Z,0.20
2022-12-19T21:06:18.444Z,-0.80
2022-12-19T21:08:48.058Z,1.40
2022-12-19T21:11:18.930Z,2.40
2022-12-19T21:13:45.970Z,-0.40
2022-12-19T21:16:15.952Z,0.30
2022-12-19T21:18:44.448Z,2.20
2022-12-19T21:21:18.128Z,1.10
2022-12-19T21:23:45.916Z,-1.40
2022-12-19T21:26:12.969Z,1.00
2022-12-19T21:28:41.997Z,1.80
2022-12-19T21:31:29.852Z,0.40
2022-12-19T21:33:58.814Z,0.10
2022-12-19T21:36:27.148Z,2.30
2022-12-19T21:38:56.262Z,1.70
2022-12-19T21:41:23.388Z,0.60
2022-12-19T21:43:53.787Z,1.60
2022-12-19T21:46:24.122Z,0.50
2022-12-19T21:48:52.959Z,1.00
2022-12-19T21:51:25.438Z,1.60
2022-12-19T21:53:57.568Z,-0.40
2022-12-19T21:56:26.355Z,0.80
2022-12-19T21:58:56.310Z,-0.20
2022-12-19T22:01:24.149Z,-0.30
2022-12-19T22:03:51.938Z,-0.40
2022-12-19T22:06:28.390Z,-0.30
2022-12-19T22:08:55.704Z,-0.10
2022-12-19T22:11:23.825Z,0.00
2022-12-19T22:13:50.868Z,-0.10
2022-12-19T22:16:18.079Z,0.30
2022-12-19T22:18:46.939Z,2.70
2022-12-19T22:21:15.514Z,1.40
2022-12-19T22:23:45.083Z,1.70
2022-12-19T22:26:18.989Z,1.90
2022-12-19T22:28:50.507Z,0.30
2022-12-19T22:31:22.253Z,-0.70
2022-12-19T22:33:51.296Z,0.90
2022-12-19T22:36:25.730Z,0.10
2022-12-19T22:38:54.891Z,0.50
2022-12-19T22:41:22.111Z,1.20
2022-12-19T22:43:52.706Z,-0.30
2022-12-19T22:46:28.016Z,0.40
2022-12-19T22:48:57.847Z,0.20
2022-12-19T22:51:25.628Z,-0.20
2022-12-19T22:53:52.638Z,1.60
2022-12-19T22:56:21.837Z,0.80
2022-12-19T22:58:50.867Z,1.60
2022-12-19T23:01:21.544Z,1.30
2022-12-19T23:03:50.433Z,0.00
2022-12-19T23:06:18.821Z,-0.40
2022-12-19T23:08:46.293Z,-0.20
2022-12-19T23:11:19.647Z,1.10
2022-12-19T23:13:50.011Z,1.20
2022-12-19T23:16:17.593Z,-0.40
2022-12-19T23:18:44.630Z,1.20
2022-12-19T23:21:13.383Z,1.50
2022-12-19T23:23:42.741Z,-0.40
2022-12-19T23:26:15.830Z,0.50
2022-12-19T23:28:52.469Z,0.20
2022-12-19T23:31:19.831Z,0.50
2022-12-19T23:33:47.089Z,-0.40
2022-12-19T23:36:16.556Z,0.40
2022-12-19T23:38:44.727Z,1.90
2022-12-19T23:41:16.090Z,1.90
2022-12-19T23:43:43.316Z,1.00
2022-12-19T23:46:14.197Z,0.40
2022-12-19T23:48:42.111Z,1.30
2022-12-19T23:51:13.158Z,0.70
2022-12-19T23:53:40.428Z,2.20
2022-12-19T23:56:12.285Z,0.10
2022-12-19T23:58:39.361Z,0.60
